Time;durP1;ratioP1;P1;durP2;ratioP2;P2;SDS_P1;SDS_P2;PMS_P1;PMS_P2;Temp;Humidity;BMP_temperature;BMP_pressure;BME280_temperature;BME280_humidity;BME280_pressure;Samples;Min_cycle;Max_cycle;Signal;HPM_P1;HPM_P2
2022/03/24 00:00:10;;;;;;;22.27;16.57;;;;;;;3.65;83.58;102103.09;684834;28;1649;-76
2022/03/24 00:00:39;;;;;;;23.50;16.38;;;;;;;3.73;83.57;102108.63;684459;28;1093;-76
2022/03/24 00:00:59;;;;;;;24.55;17.48;;;;;;;3.69;83.37;102107.59;688509;28;1416;-77
2022/03/24 00:01:20;;;;;;;24.10;17.95;;;;;;;3.69;84.04;102109.31;686863;28;4293;-77
2022/03/24 00:01:40;;;;;;;23.30;17.30;;;;;;;3.70;83.92;102101.63;688269;28;1155;-76
2022/03/24 00:02:01;;;;;;;21.50;16.67;;;;;;;3.69;82.77;102099.84;682765;28;1490;-76
2022/03/24 00:02:21;;;;;;;22.67;16.33;;;;;;;3.78;82.18;102112.34;682766;28;1176;-76
2022/03/24 00:02:42;;;;;;;23.17;16.83;;;;;;;3.82;83.33;102113.34;682381;28;914;-76
2022/03/24 00:03:02;;;;;;;21.40;16.75;;;;;;;3.85;83.31;102116.06;687232;28;1229;-77
2022/03/24 00:03:23;;;;;;;22.10;16.42;;;;;;;3.90;83.86;102117.16;685433;28;1259;-77
2022/03/24 00:03:43;;;;;;;21.20;16.13;;;;;;;3.96;83.62;102112.28;686051;28;1160;-76
2022/03/24 00:04:04;;;;;;;21.77;16.35;;;;;;;3.97;83.13;102111.44;687114;28;1366;-76
2022/03/24 00:04:26;;;;;;;23.05;16.55;;;;;;;3.88;84.16;102111.06;684333;28;4841;-77
2022/03/24 00:04:47;;;;;;;23.65;17.10;;;;;;;3.78;83.72;102116.59;684315;28;2027;-76
2022/03/24 00:05:08;;;;;;;24.60;16.90;;;;;;;3.66;84.31;102107.47;683826;28;2032;-76
2022/03/24 00:05:29;;;;;;;24.83;17.52;;;;;;;3.62;83.58;102109.84;685180;28;1940;-77
2022/03/24 00:05:49;;;;;;;23.17;17.17;;;;;;;3.64;82.55;102114.28;685471;28;1291;-76
2022/03/24 00:06:10;;;;;;;23.10;16.43;;;;;;;3.66;82.72;102111.75;685897;28;1553;-76
2022/03/24 00:06:30;;;;;;;23.63;17.38;;;;;;;3.60;83.70;102104.59;686020;28;1465;-76
2022/03/24 00:06:51;;;;;;;24.33;17.23;;;;;;;3.58;84.24;102108.78;685422;28;1124;-76
2022/03/24 00:07:12;;;;;;;24.27;17.10;;;;;;;3.55;84.91;102109.53;685002;28;4493;-76
2022/03/24 00:07:35;;;;;;;24.20;17.48;;;;;;;3.56;84.19;102105.28;685317;28;1553;-77
2022/03/24 00:07:55;;;;;;;23.90;16.88;;;;;;;3.61;83.81;102110.66;683969;28;793;-77
2022/03/24 00:08:18;;;;;;;22.90;16.52;;;;;;;3.68;83.72;102108.44;682426;28;1545;-76
2022/03/24 00:08:39;;;;;;;23.67;16.55;;;;;;;3.72;83.37;102112.03;680852;28;1361;-76
2022/03/24 00:09:00;;;;;;;23.23;16.38;;;;;;;3.74;83.16;102107.81;680364;28;1374;-77
2022/03/24 00:09:21;;;;;;;22.02;16.13;;;;;;;3.74;83.10;102110.41;680730;28;1629;-76
2022/03/24 00:09:41;;;;;;;22.23;16.60;;;;;;;3.69;83.23;102112.75;683742;28;1370;-76
2022/03/24 00:10:02;;;;;;;23.60;17.33;;;;;;;3.64;83.93;102106.50;679311;28;1271;-76
2022/03/24 00:10:23;;;;;;;23.58;17.10;;;;;;;3.64;84.01;102101.34;684575;28;4331;-76
2022/03/24 00:10:44;;;;;;;23.58;17.05;;;;;;;3.65;83.66;102109.97;684643;28;1382;-76
2022/03/24 00:11:04;;;;;;;25.45;17.58;;;;;;;3.61;84.26;102108.94;683001;28;1354;-76
2022/03/24 00:11:24;;;;;;;23.77;17.13;;;;;;;3.61;83.02;102108.06;683846;28;1270;-76
2022/03/24 00:11:46;;;;;;;23.87;16.77;;;;;;;3.59;85.07;102105.41;682576;28;1062;-76
2022/03/24 00:12:08;;;;;;;24.55;17.35;;;;;;;3.57;84.51;102101.84;682232;28;2113;-76
2022/03/24 00:12:28;;;;;;;23.88;17.38;;;;;;;3.62;84.48;102102.09;683985;28;1030;-76
2022/03/24 00:12:48;;;;;;;23.67;17.57;;;;;;;3.70;84.70;102104.19;685574;28;1195;-76
2022/03/24 00:13:10;;;;;;;23.83;17.17;;;;;;;3.77;84.70;102109.63;684664;28;4327;-76
2022/03/24 00:13:30;;;;;;;23.15;16.80;;;;;;;3.78;84.63;102111.41;685782;28;1613;-76
2022/03/24 00:13:51;;;;;;;23.65;17.00;;;;;;;3.79;83.67;102113.19;685694;28;1200;-76
2022/03/24 00:14:11;;;;;;;24.37;16.73;;;;;;;3.79;83.67;102103.72;683170;28;998;-76
2022/03/24 00:14:32;;;;;;;23.63;16.50;;;;;;;3.76;83.75;102106.19;687842;28;1244;-76
2022/03/24 00:14:53;;;;;;;23.70;17.23;;;;;;;3.71;83.95;102105.97;684831;28;1229;-76
2022/03/24 00:15:14;;;;;;;23.33;16.87;;;;;;;3.68;84.58;102100.66;685033;28;1048;-76
2022/03/24 00:15:35;;;;;;;23.63;16.77;;;;;;;3.62;85.40;102102.09;685375;28;1048;-77
2022/03/24 00:15:56;;;;;;;22.98;17.05;;;;;;;3.58;85.13;102098.44;688612;28;1103;-76
2022/03/24 00:16:18;;;;;;;23.20;17.30;;;;;;;3.53;85.08;102105.09;687271;28;4313;-76
2022/03/24 00:16:44;;;;;;;22.55;17.30;;;;;;;3.51;84.95;102109.31;683896;28;1307;-76
2022/03/24 00:17:04;;;;;;;24.15;17.45;;;;;;;3.50;84.40;102099.78;687069;28;1422;-76
2022/03/24 00:17:25;;;;;;;23.08;16.45;;;;;;;3.50;83.82;102108.47;689803;28;1748;-77
2022/03/24 00:17:45;;;;;;;23.80;17.20;;;;;;;3.45;84.85;102101.25;688113;28;1258;-76
2022/03/24 00:18:07;;;;;;;24.73;17.80;;;;;;;3.39;85.18;102101.84;688538;28;1398;-76
2022/03/24 00:18:31;;;;;;;25.05;17.80;;;;;;;3.38;84.38;102105.28;687955;28;1264;-76
2022/03/24 00:18:52;;;;;;;24.35;16.77;;;;;;;3.44;84.04;102099.50;684538;28;1918;-77
2022/03/24 00:19:12;;;;;;;24.33;16.52;;;;;;;3.46;83.89;102103.94;686870;28;4298;-76
2022/03/24 00:19:33;;;;;;;24.83;17.20;;;;;;;3.46;84.20;102101.38;688981;28;1301;-76
2022/03/24 00:19:53;;;;;;;21.63;16.83;;;;;;;3.49;84.73;102104.09;688766;28;1153;-76
2022/03/24 00:20:14;;;;;;;23.05;17.45;;;;;;;3.50;85.40;102100.69;688122;28;1397;-76
2022/03/24 00:20:35;;;;;;;25.67;17.80;;;;;;;3.50;85.60;102104.97;687290;28;4116;-76
2022/03/24 00:20:55;;;;;;;25.73;18.23;;;;;;;3.48;85.69;102101.44;687287;28;1240;-76
2022/03/24 00:21:16;;;;;;;24.60;17.53;;;;;;;3.47;86.10;102107.41;683113;28;1470;-76
2022/03/24 00:21:36;;;;;;;24.27;17.45;;;;;;;3.44;85.89;102100.38;683974;28;1547;-77
2022/03/24 00:21:57;;;;;;;23.77;17.40;;;;;;;3.38;85.81;102103.56;689099;28;1153;-76
2022/03/24 00:22:18;;;;;;;22.23;16.83;;;;;;;3.33;86.18;102102.47;687058;28;4390;-76
2022/03/24 00:22:39;;;;;;;22.37;16.87;;;;;;;3.28;86.11;102109.13;687402;28;1246;-76
2022/03/24 00:22:59;;;;;;;22.05;16.85;;;;;;;3.23;86.11;102100.25;689210;28;1488;-76
2022/03/24 00:23:20;;;;;;;23.00;16.98;;;;;;;3.23;85.97;102100.25;685167;28;1263;-77
2022/03/24 00:23:40;;;;;;;23.87;17.40;;;;;;;3.19;85.95;102094.03;684443;28;1768;-76
2022/03/24 00:24:01;;;;;;;23.98;17.88;;;;;;;3.20;85.11;102092.38;684848;28;1374;-75
2022/03/24 00:24:21;;;;;;;22.35;17.13;;;;;;;3.21;85.29;102101.88;683031;28;985;-76
2022/03/24 00:24:42;;;;;;;24.33;17.50;;;;;;;3.22;85.46;102101.06;683419;28;1398;-77
2022/03/24 00:25:03;;;;;;;25.25;17.75;;;;;;;3.25;85.90;102103.78;682296;28;1452;-76
2022/03/24 00:25:25;;;;;;;22.75;17.23;;;;;;;3.32;86.23;102100.69;682186;28;4463;-77
2022/03/24 00:25:46;;;;;;;23.77;17.35;;;;;;;3.41;86.53;102101.13;679672;28;1495;-76
2022/03/24 00:26:06;;;;;;;22.98;16.85;;;;;;;3.49;86.48;102103.19;685213;28;1717;-76
2022/03/24 00:26:27;;;;;;;23.80;16.80;;;;;;;3.58;85.60;102103.63;685576;28;883;-76
2022/03/24 00:26:47;;;;;;;23.83;17.10;;;;;;;3.58;85.62;102096.75;685419;28;1386;-77
2022/03/24 00:27:09;;;;;;;22.20;17.40;;;;;;;3.56;85.07;102094.94;685639;28;1576;-76
2022/03/24 00:27:29;;;;;;;22.55;17.50;;;;;;;3.54;85.75;102101.72;685453;28;1469;-76
2022/03/24 00:27:50;;;;;;;23.45;17.30;;;;;;;3.47;85.84;102103.13;688849;28;1425;-76
2022/03/24 00:28:10;;;;;;;24.23;17.40;;;;;;;3.41;85.60;102095.94;692703;28;4767;-76
2022/03/24 00:28:31;;;;;;;24.13;17.40;;;;;;;3.39;86.13;102105.34;691213;28;1281;-76
2022/03/24 00:28:51;;;;;;;24.13;17.63;;;;;;;3.35;86.08;102107.69;687088;28;1128;-76
2022/03/24 00:29:12;;;;;;;24.13;17.02;;;;;;;3.31;86.16;102095.44;684867;28;1464;-77
2022/03/24 00:29:32;;;;;;;23.40;16.70;;;;;;;3.26;85.77;102092.63;681548;28;1443;-75
2022/03/24 00:29:56;;;;;;;24.30;17.65;;;;;;;3.28;86.40;102097.88;681234;28;1462;-76
2022/03/24 00:30:18;;;;;;;25.42;17.75;;;;;;;3.28;86.87;102101.38;686903;28;1367;-76
2022/03/24 00:30:38;;;;;;;24.47;17.93;;;;;;;3.27;86.81;102093.50;684280;28;1348;-76
2022/03/24 00:31:01;;;;;;;23.77;17.80;;;;;;;3.26;87.14;102096.94;683364;28;1160;-76
2022/03/24 00:31:22;;;;;;;22.98;17.23;;;;;;;3.23;86.78;102108.00;681843;28;6646;-76
2022/03/24 00:31:43;;;;;;;24.13;17.20;;;;;;;3.21;87.13;102091.53;682238;28;1356;-76
2022/03/24 00:32:04;;;;;;;25.60;17.60;;;;;;;3.20;87.61;102094.94;680086;28;1315;-76
2022/03/24 00:32:24;;;;;;;25.75;18.00;;;;;;;3.17;87.78;102100.84;680319;28;1411;-76
2022/03/24 00:32:45;;;;;;;26.27;17.58;;;;;;;3.18;87.38;102099.13;680770;28;1477;-76
2022/03/24 00:33:05;;;;;;;24.57;17.33;;;;;;;3.22;87.33;102093.31;679564;28;1439;-76
2022/03/24 00:33:26;;;;;;;24.10;17.30;;;;;;;3.25;86.62;102101.19;679976;29;1269;-76
2022/03/24 00:33:46;;;;;;;24.33;17.27;;;;;;;3.27;86.90;102094.41;679833;29;1342;-76
2022/03/24 00:34:07;;;;;;;21.80;16.63;;;;;;;3.23;86.40;102092.50;681088;28;4330;-77
2022/03/24 00:34:27;;;;;;;22.73;16.90;;;;;;;3.19;87.13;102093.16;684958;28;1275;-76
2022/03/24 00:34:48;;;;;;;22.03;16.67;;;;;;;3.17;86.46;102094.78;684978;28;1421;-76
2022/03/24 00:35:09;;;;;;;23.75;17.08;;;;;;;3.19;86.09;102095.75;684693;28;1361;-77
2022/03/24 00:35:30;;;;;;;24.25;17.60;;;;;;;3.26;86.94;102094.34;686826;28;1341;-77
2022/03/24 00:35:51;;;;;;;25.88;17.75;;;;;;;3.29;87.04;102097.94;688529;28;1015;-76
2022/03/24 00:36:14;;;;;;;24.17;17.33;;;;;;;3.32;86.58;102090.34;682567;28;1211;-76
2022/03/24 00:36:35;;;;;;;23.63;17.42;;;;;;;3.36;86.72;102089.66;685082;28;1454;-76
2022/03/24 00:36:56;;;;;;;24.63;17.33;;;;;;;3.33;86.31;102097.28;685146;28;1184;-77
2022/03/24 00:37:17;;;;;;;23.70;17.25;;;;;;;3.30;85.66;102096.28;686099;28;4395;-76
2022/03/24 00:37:37;;;;;;;24.48;17.70;;;;;;;3.24;86.59;102091.69;688038;28;1411;-76
2022/03/24 00:37:58;;;;;;;24.50;17.95;;;;;;;3.16;86.44;102093.91;685013;28;1238;-77
2022/03/24 00:38:18;;;;;;;23.77;17.77;;;;;;;3.14;86.41;102090.34;684897;28;1156;-76
2022/03/24 00:38:39;;;;;;;25.02;17.17;;;;;;;3.16;86.56;102093.91;685432;28;1394;-76
2022/03/24 00:39:00;;;;;;;23.63;16.55;;;;;;;3.20;87.06;102102.69;684826;28;4662;-76
2022/03/24 00:39:21;;;;;;;24.15;17.17;;;;;;;3.18;86.68;102091.38;686213;28;1402;-76
2022/03/24 00:39:41;;;;;;;23.23;17.00;;;;;;;3.17;87.31;102092.19;685532;28;1291;-76
2022/03/24 00:40:06;;;;;;;23.77;17.65;;;;;;;3.13;87.52;102092.84;682770;28;1524;-76
2022/03/24 00:40:27;;;;;;;25.08;17.50;;;;;;;3.11;87.37;102090.19;683556;28;4643;-76
2022/03/24 00:40:48;;;;;;;24.15;17.38;;;;;;;3.10;87.75;102090.13;683151;28;1303;-76
2022/03/24 00:41:08;;;;;;;24.05;17.15;;;;;;;3.04;87.63;102093.28;681949;28;1237;-76
2022/03/24 00:41:29;;;;;;;23.57;16.97;;;;;;;3.00;87.79;102100.00;683284;28;1315;-76
2022/03/24 00:41:49;;;;;;;24.75;18.15;;;;;;;2.95;88.13;102104.06;686122;28;1286;-76
2022/03/24 00:42:11;;;;;;;23.30;17.97;;;;;;;2.95;87.15;102098.00;683923;28;1236;-76
2022/03/24 00:42:35;;;;;;;23.92;17.52;;;;;;;2.96;87.58;102098.06;683546;28;1610;-76
2022/03/24 00:42:56;;;;;;;24.13;17.35;;;;;;;2.98;87.41;102096.47;684695;28;1386;-76
2022/03/24 00:43:18;;;;;;;23.20;17.50;;;;;;;3.03;87.51;102094.09;684875;28;4278;-76
2022/03/24 00:43:39;;;;;;;22.70;17.45;;;;;;;3.03;88.50;102092.41;681850;28;1251;-76
2022/03/24 00:44:03;;;;;;;25.52;17.80;;;;;;;2.99;88.56;102094.75;683026;28;1548;-76
2022/03/24 00:44:24;;;;;;;26.70;18.38;;;;;;;2.96;88.91;102087.75;681595;28;1606;-76
2022/03/24 00:44:44;;;;;;;25.13;17.70;;;;;;;2.98;88.22;102093.00;683020;28;1301;-76
2022/03/24 00:45:09;;;;;;;24.35;17.15;;;;;;;2.95;88.88;102086.00;683373;28;1544;-76
2022/03/24 00:45:30;;;;;;;25.08;17.42;;;;;;;2.90;88.39;102095.19;685256;28;1235;-76
2022/03/24 00:45:53;;;;;;;24.10;17.50;;;;;;;2.88;87.68;102089.06;685389;28;1659;-78
2022/03/24 00:46:21;;;;;;;24.33;17.23;;;;;;;2.87;88.06;102090.75;685400;28;4284;-76
2022/03/24 00:46:42;;;;;;;24.75;16.88;;;;;;;2.84;88.22;102089.75;687055;28;1195;-76
2022/03/24 00:47:03;;;;;;;25.60;17.42;;;;;;;2.83;88.15;102088.84;688620;28;3370;-76
2022/03/24 00:47:25;;;;;;;25.13;17.77;;;;;;;2.87;88.48;102089.88;689167;28;1482;-76
2022/03/24 00:47:46;;;;;;;25.60;16.98;;;;;;;2.88;88.88;102091.63;689903;28;1249;-77
2022/03/24 00:48:08;;;;;;;23.60;17.17;;;;;;;2.82;88.64;102084.47;690357;28;1291;-76
2022/03/24 00:48:29;;;;;;;23.33;17.52;;;;;;;2.81;88.32;102090.47;688133;28;1217;-76
2022/03/24 00:48:52;;;;;;;25.33;17.75;;;;;;;2.80;88.14;102085.25;687879;28;1378;-76
2022/03/24 00:49:13;;;;;;;22.38;17.15;;;;;;;2.81;88.94;102097.31;685470;28;4301;-76
2022/03/24 00:49:33;;;;;;;24.20;17.60;;;;;;;2.77;89.17;102091.13;687388;28;1473;-76
2022/03/24 00:49:53;;;;;;;25.58;18.08;;;;;;;2.75;89.31;102081.53;684389;28;1676;-76
2022/03/24 00:50:14;;;;;;;24.67;17.40;;;;;;;2.75;88.46;102090.16;686368;28;1273;-76
2022/03/24 00:50:35;;;;;;;25.08;17.25;;;;;;;2.74;89.02;102090.97;684766;28;1331;-76
2022/03/24 00:50:56;;;;;;;24.52;17.33;;;;;;;2.69;88.59;102090.72;684277;28;1474;-76
2022/03/24 00:51:18;;;;;;;23.33;17.40;;;;;;;2.72;88.40;102087.41;685848;28;1259;-76
2022/03/24 00:51:38;;;;;;;23.65;17.05;;;;;;;2.75;89.44;102090.16;686065;28;1554;-76
2022/03/24 00:51:59;;;;;;;24.13;17.27;;;;;;;2.77;89.82;102087.63;686508;28;1399;-76
2022/03/24 00:52:20;;;;;;;23.58;17.05;;;;;;;2.78;89.63;102090.28;685104;28;4294;-77
2022/03/24 00:52:41;;;;;;;24.58;17.55;;;;;;;2.77;89.94;102091.13;685430;28;1338;-76
2022/03/24 00:53:02;;;;;;;26.37;18.10;;;;;;;2.78;89.37;102084.25;686721;28;1685;-76
2022/03/24 00:53:23;;;;;;;27.00;17.85;;;;;;;2.85;88.48;102083.75;689003;28;1186;-76
2022/03/24 00:53:46;;;;;;;21.98;16.83;;;;;;;2.90;88.59;102085.75;686473;28;1577;-76
2022/03/24 00:54:07;;;;;;;23.05;17.38;;;;;;;2.91;88.66;102081.47;687912;28;1784;-76
2022/03/24 00:54:28;;;;;;;24.02;17.95;;;;;;;2.92;88.87;102090.97;685935;28;1393;-76
2022/03/24 00:54:48;;;;;;;24.43;17.60;;;;;;;2.90;88.27;102084.88;685904;28;1720;-76
2022/03/24 00:55:13;;;;;;;24.67;17.23;;;;;;;2.85;88.45;102086.34;687554;28;4302;-76
2022/03/24 00:55:34;;;;;;;24.48;17.25;;;;;;;2.88;87.74;102082.22;686492;28;974;-76
2022/03/24 00:55:56;;;;;;;24.83;18.10;;;;;;;2.95;88.52;102093.75;688251;28;1282;-77
2022/03/24 00:56:19;;;;;;;23.83;17.45;;;;;;;3.01;88.40;102080.25;686115;28;1528;-76
2022/03/24 00:56:40;;;;;;;24.88;17.50;;;;;;;3.03;88.22;102081.19;687995;28;1445;-76
2022/03/24 00:57:01;;;;;;;25.30;17.47;;;;;;;3.04;87.87;102082.97;685278;28;1895;-76
2022/03/24 00:57:22;;;;;;;23.27;16.77;;;;;;;3.00;88.29;102091.38;682600;28;1258;-75
2022/03/24 00:57:44;;;;;;;24.43;17.47;;;;;;;2.95;87.71;102083.41;679886;28;1416;-76
2022/03/24 00:58:04;;;;;;;23.73;17.77;;;;;;;2.90;88.47;102090.03;685022;28;1125;-76
2022/03/24 00:58:25;;;;;;;24.77;17.50;;;;;;;2.85;88.11;102084.66;685590;28;5083;-76
2022/03/24 00:58:46;;;;;;;26.03;17.67;;;;;;;2.87;87.78;102092.47;686054;28;1931;-76
2022/03/24 00:59:06;;;;;;;24.97;17.50;;;;;;;2.84;88.59;102090.63;684932;28;1408;-77
2022/03/24 00:59:27;;;;;;;24.17;17.80;;;;;;;2.78;89.25;102081.69;680683;29;1478;-76
2022/03/24 00:59:47;;;;;;;22.83;17.02;;;;;;;2.75;89.07;102089.28;679330;29;1627;-76
2022/03/24 01:00:16;;;;;;;25.43;17.87;;;;;;;2.75;89.30;102081.53;682106;28;1283;-76
2022/03/24 01:00:38;;;;;;;25.38;18.20;;;;;;;2.74;88.92;102096.13;685708;28;1452;-76
2022/03/24 01:00:59;;;;;;;24.42;17.85;;;;;;;2.70;89.28;102091.59;685095;28;1053;-76
2022/03/24 01:01:20;;;;;;;24.75;17.88;;;;;;;2.69;88.63;102084.69;684687;28;4470;-76
2022/03/24 01:01:41;;;;;;;23.67;17.40;;;;;;;2.73;88.72;102089.22;682851;28;1657;-76
2022/03/24 01:02:03;;;;;;;23.38;17.15;;;;;;;2.72;88.72;102085.72;682106;28;1178;-76
2022/03/24 01:02:28;;;;;;;23.33;17.05;;;;;;;2.73;88.55;102089.22;680353;28;1280;-76
2022/03/24 01:02:54;;;;;;;26.20;17.38;;;;;;;2.72;88.77;102096.03;685295;28;1482;-76
2022/03/24 01:03:15;;;;;;;24.50;17.73;;;;;;;2.70;89.04;102082.19;678305;28;1577;-76
2022/03/24 01:03:36;;;;;;;23.70;17.50;;;;;;;2.73;88.76;102087.50;680630;29;1717;-77
2022/03/24 01:03:56;;;;;;;25.92;17.98;;;;;;;2.76;89.40;102085.91;684069;28;1232;-76
2022/03/24 01:04:17;;;;;;;23.92;17.70;;;;;;;2.73;89.19;102084.03;686686;28;4456;-76
2022/03/24 01:04:38;;;;;;;24.73;17.37;;;;;;;2.67;89.01;102082.03;685173;28;1617;-76
2022/03/24 01:05:01;;;;;;;25.05;17.38;;;;;;;2.63;89.45;102086.94;686428;28;1317;-76
2022/03/24 01:05:27;;;;;;;29.88;18.17;;;;;;;2.61;89.00;102083.41;684453;28;1676;-76
2022/03/24 01:05:48;;;;;;;27.58;18.33;;;;;;;2.60;89.14;102086.81;684543;28;1528;-76
2022/03/24 01:06:16;;;;;;;23.63;18.08;;;;;;;2.58;89.88;102084.16;686310;28;1693;-77
2022/03/24 01:06:37;;;;;;;25.27;18.38;;;;;;;2.59;90.00;102085.94;682800;28;1256;-76
2022/03/24 01:06:58;;;;;;;24.33;17.98;;;;;;;2.58;90.23;102084.16;685102;28;1316;-76
2022/03/24 01:07:19;;;;;;;24.63;17.25;;;;;;;2.59;90.24;102083.34;685750;28;4311;-76
2022/03/24 01:07:39;;;;;;;26.10;17.97;;;;;;;2.60;90.62;102090.25;688017;28;1635;-76
2022/03/24 01:08:00;;;;;;;24.48;18.13;;;;;;;2.63;89.35;102080.13;689447;28;1139;-76
2022/03/24 01:08:22;;;;;;;25.58;17.75;;;;;;;2.67;87.14;102081.13;686233;28;1389;-76
2022/03/24 01:08:42;;;;;;;26.48;17.90;;;;;;;2.69;87.83;102080.41;681173;28;1502;-76
2022/03/24 01:09:05;;;;;;;27.27;17.80;;;;;;;2.75;88.68;102084.13;681485;28;1091;-76
2022/03/24 01:09:25;;;;;;;26.73;17.80;;;;;;;2.76;89.19;102085.91;680641;28;1576;-75
2022/03/24 01:09:45;;;;;;;24.48;17.55;;;;;;;2.75;89.04;102076.38;684671;28;1293;-76
2022/03/24 01:10:06;;;;;;;26.33;18.20;;;;;;;2.73;87.50;102082.34;686772;28;4291;-76
2022/03/24 01:10:27;;;;;;;23.95;17.67;;;;;;;2.67;88.89;102079.47;688729;28;1418;-76
2022/03/24 01:10:48;;;;;;;24.35;17.55;;;;;;;2.67;89.28;102086.28;689903;28;977;-76
2022/03/24 01:11:08;;;;;;;25.40;17.88;;;;;;;2.67;89.21;102082.03;688071;28;1035;-76
2022/03/24 01:11:31;;;;;;;24.00;17.55;;;;;;;2.66;89.05;102084.50;686521;28;1628;-76
2022/03/24 01:11:51;;;;;;;25.15;18.17;;;;;;;2.62;89.41;102088.66;685727;28;1255;-76
2022/03/24 01:12:13;;;;;;;26.33;17.73;;;;;;;2.60;89.71;102090.25;684905;28;1326;-76
2022/03/24 01:12:34;;;;;;;24.58;17.63;;;;;;;2.58;88.62;102081.56;680862;28;1323;-76
2022/03/24 01:12:59;;;;;;;23.83;18.13;;;;;;;2.63;87.89;102090.44;680903;28;1616;-76
2022/03/24 01:13:21;;;;;;;25.02;18.17;;;;;;;2.67;88.76;102087.22;686898;28;4451;-76
2022/03/24 01:13:43;;;;;;;24.23;17.30;;;;;;;2.67;89.34;102084.63;685799;28;1416;-76
2022/03/24 01:14:05;;;;;;;24.10;17.55;;;;;;;2.76;89.11;102085.91;682039;28;1171;-76
2022/03/24 01:14:25;;;;;;;24.20;17.48;;;;;;;2.81;89.51;102094.75;682938;28;1753;-76
2022/03/24 01:14:46;;;;;;;24.23;17.73;;;;;;;2.81;88.41;102085.31;683134;28;1505;-76
2022/03/24 01:15:07;;;;;;;24.13;17.65;;;;;;;2.83;88.73;102087.97;686926;28;1323;-76
2022/03/24 01:15:30;;;;;;;24.60;18.25;;;;;;;2.81;88.12;102085.31;687437;28;1251;-76
2022/03/24 01:15:50;;;;;;;26.30;18.00;;;;;;;2.78;89.07;102089.41;687058;28;1497;-76
2022/03/24 01:16:13;;;;;;;24.15;18.35;;;;;;;2.75;89.40;102091.88;681765;28;4300;-78
2022/03/24 01:16:35;;;;;;;24.38;17.70;;;;;;;2.69;89.59;102090.72;682158;28;4305;-77
2022/03/24 01:16:57;;;;;;;26.00;18.40;;;;;;;2.64;89.64;102080.97;685447;28;2051;-76
2022/03/24 01:17:18;;;;;;;24.17;17.77;;;;;;;2.63;89.35;102086.94;687284;28;1854;-76
2022/03/24 01:17:42;;;;;;;24.77;18.00;;;;;;;2.60;89.15;102087.69;687915;28;1605;-77
2022/03/24 01:18:03;;;;;;;25.20;17.45;;;;;;;2.62;89.41;102091.25;691340;28;1342;-77
2022/03/24 01:18:27;;;;;;;26.15;18.40;;;;;;;2.64;89.27;102087.03;688955;28;1287;-76
2022/03/24 01:18:52;;;;;;;25.70;17.92;;;;;;;2.67;89.34;102092.38;686535;28;1926;-76
2022/03/24 01:19:14;;;;;;;25.00;18.15;;;;;;;2.62;89.64;102083.50;687730;28;4287;-76
2022/03/24 01:19:35;;;;;;;25.50;18.02;;;;;;;2.59;89.73;102085.94;686868;28;1403;-77
2022/03/24 01:19:56;;;;;;;25.48;18.10;;;;;;;2.53;89.71;102091.66;684884;28;1546;-76
2022/03/24 01:20:16;;;;;;;24.77;17.75;;;;;;;2.53;89.94;102088.19;684467;28;1442;-78
2022/03/24 01:20:37;;;;;;;25.77;18.07;;;;;;;2.56;88.89;102085.75;685118;28;1545;-76
2022/03/24 01:21:00;;;;;;;24.10;17.53;;;;;;;2.55;89.58;102092.63;685286;28;1501;-76
2022/03/24 01:21:21;;;;;;;24.60;18.25;;;;;;;2.52;89.64;102096.72;683305;28;1698;-76
2022/03/24 01:21:42;;;;;;;25.57;18.53;;;;;;;2.52;90.73;102082.16;685507;28;1598;-76
2022/03/24 01:22:02;;;;;;;25.50;18.30;;;;;;;2.51;90.79;102089.81;686255;28;1572;-76
2022/03/24 01:22:23;;;;;;;26.10;18.52;;;;;;;2.53;89.11;102088.19;685064;28;4318;-76
2022/03/24 01:22:43;;;;;;;24.58;17.90;;;;;;;2.56;87.70;102088.34;683159;28;1404;-76
2022/03/24 01:23:04;;;;;;;25.03;17.97;;;;;;;2.60;87.88;102084.22;684154;28;1304;-76
2022/03/24 01:23:26;;;;;;;26.85;18.17;;;;;;;2.62;87.95;102085.19;684090;28;1291;-76
2022/03/24 01:23:46;;;;;;;26.00;18.27;;;;;;;2.60;87.82;102079.94;677094;29;1483;-76
2022/03/24 01:24:08;;;;;;;26.75;18.67;;;;;;;2.65;87.19;102087.94;677211;29;1449;-76
2022/03/24 01:24:29;;;;;;;26.27;18.00;;;;;;;2.64;89.01;102084.44;678843;29;1633;-76
2022/03/24 01:24:50;;;;;;;24.60;18.83;;;;;;;2.62;89.14;102083.50;685475;28;1366;-76
2022/03/24 01:25:11;;;;;;;24.63;18.30;;;;;;;2.60;88.77;102089.38;684863;28;4501;-76
2022/03/24 01:25:32;;;;;;;24.55;18.02;;;;;;;2.59;88.96;102082.44;686846;28;1378;-76
2022/03/24 01:25:54;;;;;;;25.65;18.10;;;;;;;2.63;88.23;102084.38;688515;28;976;-76
2022/03/24 01:26:18;;;;;;;24.92;17.77;;;;;;;2.62;88.61;102093.81;685437;28;1259;-76
2022/03/24 01:26:39;;;;;;;25.90;17.73;;;;;;;2.59;89.11;102088.50;687488;28;1347;-76
2022/03/24 01:26:59;;;;;;;26.87;17.97;;;;;;;2.57;89.78;102090.13;687181;28;1080;-76
2022/03/24 01:27:25;;;;;;;25.33;17.83;;;;;;;2.55;89.51;102082.28;683889;28;1780;-76
2022/03/24 01:27:47;;;;;;;24.23;18.15;;;;;;;2.55;90.40;102082.28;679877;28;1415;-76
2022/03/24 01:28:09;;;;;;;25.23;17.98;;;;;;;2.55;90.66;102086.59;683743;28;4329;-76
2022/03/24 01:28:30;;;;;;;24.05;18.25;;;;;;;2.56;89.53;102088.34;686109;28;1461;-76
2022/03/24 01:28:50;;;;;;;25.33;18.77;;;;;;;2.54;89.93;102083.09;685394;28;1444;-76
2022/03/24 01:29:12;;;;;;;25.83;17.63;;;;;;;2.55;89.17;102084.00;683128;28;1364;-76
2022/03/24 01:29:33;;;;;;;26.25;17.85;;;;;;;2.56;89.95;102090.91;690067;28;1422;-76
2022/03/24 01:29:57;;;;;;;26.00;18.10;;;;;;;2.56;90.06;102080.59;690797;28;1228;-76
2022/03/24 01:30:17;;;;;;;26.60;17.83;;;;;;;2.55;89.71;102081.41;689123;28;1576;-76
2022/03/24 01:30:40;;;;;;;26.80;17.60;;;;;;;2.56;88.77;102085.75;685028;28;1374;-76
2022/03/24 01:31:00;;;;;;;25.08;17.80;;;;;;;2.57;88.91;102089.25;686151;28;1434;-76
2022/03/24 01:31:20;;;;;;;25.17;18.03;;;;;;;2.53;89.52;102086.50;681740;28;4361;-76
2022/03/24 01:31:42;;;;;;;25.17;18.27;;;;;;;2.48;89.54;102089.63;681962;28;1594;-76
2022/03/24 01:32:04;;;;;;;25.88;18.27;;;;;;;2.46;90.02;102086.09;681947;28;1398;-76
2022/03/24 01:32:28;;;;;;;26.20;18.75;;;;;;;2.44;90.41;102085.13;680188;28;1156;-76
2022/03/24 01:32:48;;;;;;;26.77;18.85;;;;;;;2.42;90.90;102089.34;681050;28;1416;-76
2022/03/24 01:33:10;;;;;;;27.80;19.30;;;;;;;2.43;90.96;102096.28;679730;28;1484;-76
2022/03/24 01:33:31;;;;;;;25.33;18.53;;;;;;;2.43;91.25;102091.13;683889;28;1498;-76
2022/03/24 01:33:52;;;;;;;25.27;18.30;;;;;;;2.40;91.10;102097.00;688616;28;1457;-76
2022/03/24 01:34:13;;;;;;;24.38;18.02;;;;;;;2.36;91.08;102083.03;687405;28;4282;-75
2022/03/24 01:34:34;;;;;;;25.42;18.45;;;;;;;2.35;91.28;102086.44;689101;28;1469;-77
2022/03/24 01:34:55;;;;;;;26.20;17.88;;;;;;;2.33;90.68;102084.59;687850;28;1602;-76
2022/03/24 01:35:16;;;;;;;25.47;18.00;;;;;;;2.30;90.62;102082.72;686862;28;1365;-76
2022/03/24 01:35:36;;;;;;;25.67;18.20;;;;;;;2.26;91.06;102085.97;687656;28;2234;-76
2022/03/24 01:35:57;;;;;;;26.92;18.63;;;;;;;2.24;91.58;102082.41;688664;28;1231;-77
2022/03/24 01:36:18;;;;;;;25.70;18.83;;;;;;;2.22;91.63;102089.19;689753;28;1446;-76
2022/03/24 01:36:39;;;;;;;24.33;18.10;;;;;;;2.23;91.49;102083.22;690687;28;1433;-76
2022/03/24 01:37:02;;;;;;;24.50;17.72;;;;;;;2.26;91.17;102090.22;681009;28;1666;-76
2022/03/24 01:37:26;;;;;;;24.90;17.65;;;;;;;2.22;91.50;102086.59;685567;28;4256;-76
2022/03/24 01:37:46;;;;;;;25.65;17.88;;;;;;;2.18;90.78;102080.38;685839;28;1628;-76
2022/03/24 01:38:07;;;;;;;25.40;17.73;;;;;;;2.22;90.27;102084.03;684205;28;1470;-75
2022/03/24 01:38:28;;;;;;;25.98;18.15;;;;;;;2.26;90.31;102083.38;683945;28;1332;-76
2022/03/24 01:38:48;;;;;;;25.20;17.70;;;;;;;2.30;90.79;102087.00;685125;28;1942;-76
2022/03/24 01:39:11;;;;;;;23.70;18.30;;;;;;;2.26;90.94;102087.63;683884;28;4875;-76
2022/03/24 01:39:32;;;;;;;26.87;18.83;;;;;;;2.24;90.31;102084.09;685032;28;1483;-76
2022/03/24 01:39:53;;;;;;;25.42;18.27;;;;;;;2.31;90.98;102081.94;683387;28;1439;-76
2022/03/24 01:40:18;;;;;;;25.75;18.23;;;;;;;2.43;90.94;102084.25;681589;28;4341;-76
2022/03/24 01:40:39;;;;;;;25.80;18.13;;;;;;;2.44;90.85;102086.03;683789;28;1470;-76